createdAt,value
2023-03-22T00:01:47.023Z,75.10
2023-03-22T00:04:14.005Z,75.70
2023-03-22T00:06:40.860Z,75.00
2023-03-22T00:09:07.411Z,75.70
2023-03-22T00:11:34.276Z,75.70
2023-03-22T00:14:00.892Z,76.30
2023-03-22T00:16:27.696Z,77.50
2023-03-22T00:18:54.469Z,78.40
2023-03-22T00:21:21.228Z,78.30
2023-03-22T00:23:47.796Z,78.40
2023-03-22T00:26:15.088Z,78.30
2023-03-22T00:28:42.243Z,78.30
2023-03-22T00:31:09.256Z,78.00
2023-03-22T00:33:36.394Z,78.40
2023-03-22T00:36:07.725Z,77.70
2023-03-22T00:38:42.572Z,77.50
2023-03-22T00:41:14.475Z,76.90
2023-03-22T00:43:41.175Z,77.40
2023-03-22T00:46:08.369Z,76.90
2023-03-22T00:48:35.184Z,77.20
2023-03-22T00:51:01.875Z,76.80
2023-03-22T00:53:32.909Z,78.10
2023-03-22T00:56:00.264Z,78.10
2023-03-22T00:58:26.970Z,78.00
2023-03-22T01:00:53.692Z,78.10
2023-03-22T01:03:21.814Z,78.10
2023-03-22T01:05:49.365Z,78.10
2023-03-22T01:08:16.873Z,78.00
2023-03-22T01:10:44.337Z,78.00
2023-03-22T01:13:11.647Z,78.00
2023-03-22T01:15:38.293Z,79.20
2023-03-22T01:18:04.869Z,79.00
2023-03-22T01:20:31.946Z,80.20
2023-03-22T01:22:58.816Z,79.50
2023-03-22T01:25:25.390Z,79.40
2023-03-22T01:27:51.977Z,77.70
2023-03-22T01:30:18.565Z,75.80
2023-03-22T01:32:45.118Z,75.10
2023-03-22T01:35:11.678Z,75.10
2023-03-22T01:37:38.264Z,75.90
2023-03-22T01:40:05.402Z,75.40
2023-03-22T01:42:32.053Z,75.10
2023-03-22T01:45:13.820Z,74.00
2023-03-22T01:47:46.021Z,75.50
2023-03-22T01:50:12.905Z,75.90
2023-03-22T01:52:40.348Z,78.10
2023-03-22T01:55:09.379Z,78.10
2023-03-22T01:57:39.558Z,78.00
2023-03-22T02:00:15.693Z,78.10
2023-03-22T02:02:43.155Z,77.90
2023-03-22T02:05:09.861Z,77.90
2023-03-22T02:07:37.432Z,79.80
2023-03-22T02:10:04.112Z,81.30
2023-03-22T02:12:30.622Z,83.80
2023-03-22T02:15:26.637Z,86.00
2023-03-22T02:18:06.256Z,86.00
2023-03-22T02:20:32.756Z,86.00
2023-03-22T02:23:08.236Z,85.90
2023-03-22T02:25:34.936Z,86.10
2023-03-22T02:28:08.482Z,85.90
2023-03-22T02:30:42.308Z,86.00
2023-03-22T02:33:22.457Z,87.60
2023-03-22T02:36:12.619Z,88.60
2023-03-22T02:38:48.754Z,89.70
2023-03-22T02:41:20.376Z,90.50
2023-03-22T02:44:00.861Z,90.60
2023-03-22T02:46:27.439Z,91.30
2023-03-22T02:49:00.850Z,91.50
2023-03-22T02:51:40.202Z,91.70
2023-03-22T02:54:13.904Z,91.70
2023-03-22T02:56:43.630Z,91.70
2023-03-22T02:59:11.679Z,91.70
2023-03-22T03:01:40.895Z,92.50
2023-03-22T03:04:10.683Z,92.50
2023-03-22T03:06:40.092Z,93.20
2023-03-22T03:09:07.102Z,93.40
2023-03-22T03:11:33.727Z,93.40
2023-03-22T03:14:00.279Z,93.10
2023-03-22T03:16:28.236Z,92.50
2023-03-22T03:19:09.540Z,91.70
2023-03-22T03:22:00.312Z,91.60
2023-03-22T03:24:32.774Z,91.30
2023-03-22T03:27:04.107Z,91.60
2023-03-22T03:29:50.742Z,91.60
2023-03-22T03:32:21.790Z,91.60
2023-03-22T03:34:52.580Z,90.90
2023-03-22T03:37:22.710Z,90.00
2023-03-22T03:39:54.105Z,88.80
2023-03-22T03:42:21.623Z,88.30
2023-03-22T03:44:48.389Z,87.20
2023-03-22T03:47:16.010Z,86.60
2023-03-22T03:49:42.769Z,85.50
2023-03-22T03:52:09.404Z,86.30
2023-03-22T03:54:36.042Z,86.00
2023-03-22T03:57:04.090Z,86.20
2023-03-22T03:59:30.842Z,88.00
2023-03-22T04:01:57.683Z,88.80
2023-03-22T04:04:27.757Z,88.80
2023-03-22T04:06:56.738Z,88.50
2023-03-22T04:09:24.382Z,88.50
2023-03-22T04:11:51.421Z,88.90
2023-03-22T04:14:18.179Z,89.10
2023-03-22T04:16:44.902Z,89.00
2023-03-22T04:19:11.591Z,90.20
2023-03-22T04:21:38.210Z,91.10
2023-03-22T04:24:04.970Z,91.20
2023-03-22T04:26:32.086Z,90.80
2023-03-22T04:28:58.729Z,90.80
2023-03-22T04:31:25.547Z,91.00
2023-03-22T04:33:54.934Z,93.80
2023-03-22T04:36:22.033Z,94.70
2023-03-22T04:38:48.845Z,95.90
2023-03-22T04:41:15.468Z,95.30
2023-03-22T04:43:42.315Z,94.70
2023-03-22T04:46:10.094Z,93.90
2023-03-22T04:48:37.990Z,93.30
2023-03-22T04:51:08.491Z,92.90
2023-03-22T04:53:38.785Z,92.70
2023-03-22T04:56:06.871Z,92.70
2023-03-22T04:58:34.510Z,92.80
2023-03-22T05:01:01.533Z,93.40
2023-03-22T05:03:28.179Z,94.50
2023-03-22T05:06:01.716Z,94.70
2023-03-22T05:08:29.389Z,94.50
2023-03-22T05:10:56.975Z,94.70
2023-03-22T05:13:24.606Z,94.40
2023-03-22T05:15:51.866Z,93.90
2023-03-22T05:18:22.371Z,94.00
2023-03-22T05:20:48.943Z,94.50
2023-03-22T05:23:19.207Z,94.70
2023-03-22T05:25:46.939Z,94.70
2023-03-22T05:28:14.288Z,94.00
2023-03-22T05:30:42.107Z,93.30
2023-03-22T05:33:09.464Z,92.90
2023-03-22T05:35:37.424Z,92.40
2023-03-22T05:38:04.312Z,91.70
2023-03-22T05:40:31.001Z,92.70
2023-03-22T05:42:57.552Z,93.50
2023-03-22T05:45:24.375Z,93.40
2023-03-22T05:47:51.746Z,94.70
2023-03-22T05:50:19.962Z,94.70
2023-03-22T05:52:46.895Z,94.80
2023-03-22T05:55:14.163Z,95.40
2023-03-22T05:57:41.187Z,99.90
2023-03-22T06:00:13.289Z,63.60
2023-03-22T06:02:40.874Z,35.60
2023-03-22T06:05:08.293Z,43.80
2023-03-22T06:07:34.840Z,50.70
2023-03-22T06:10:01.419Z,60.40
2023-03-22T06:12:30.074Z,65.30
2023-03-22T06:14:56.807Z,68.90
2023-03-22T06:17:24.133Z,73.60
2023-03-22T06:19:53.029Z,76.80
2023-03-22T06:22:20.144Z,78.20
2023-03-22T06:24:47.605Z,77.40
2023-03-22T06:27:14.218Z,77.50
2023-03-22T06:29:40.799Z,75.70
2023-03-22T06:32:07.434Z,73.00
2023-03-22T06:34:34.034Z,71.70
2023-03-22T06:37:00.802Z,69.80
2023-03-22T06:39:27.393Z,65.70
2023-03-22T06:41:54.030Z,62.00
2023-03-22T06:44:22.511Z,56.40
2023-03-22T06:46:49.038Z,51.80
2023-03-22T06:49:16.721Z,47.20
2023-03-22T06:51:43.328Z,41.60
2023-03-22T06:54:09.896Z,32.60
2023-03-22T06:56:36.575Z,26.60
2023-03-22T06:59:03.297Z,24.80
2023-03-22T07:01:29.962Z,20.40
2023-03-22T07:03:56.522Z,18.20
2023-03-22T07:06:23.105Z,17.00
2023-03-22T07:08:50.868Z,12.10
2023-03-22T07:11:18.517Z,10.20
2023-03-22T07:13:45.287Z,8.30
2023-03-22T07:16:11.895Z,4.80
2023-03-22T07:18:38.498Z,2.70
2023-03-22T07:21:05.208Z,1.00
2023-03-22T07:23:31.741Z,1.00
2023-03-22T07:26:00.520Z,1.00
2023-03-22T07:28:27.127Z,1.00
2023-03-22T07:31:01.195Z,1.00
2023-03-22T07:33:27.855Z,1.00
2023-03-22T07:35:54.445Z,1.00
2023-03-22T07:38:21.090Z,1.00
2023-03-22T07:40:47.683Z,1.00
2023-03-22T07:43:14.328Z,1.00
2023-03-22T07:45:41.040Z,1.00
2023-03-22T07:48:11.078Z,1.00
2023-03-22T07:50:38.297Z,1.00
2023-03-22T07:53:05.027Z,1.00
2023-03-22T07:55:31.667Z,1.00
2023-03-22T07:57:58.222Z,1.00
2023-03-22T08:00:24.890Z,1.00
2023-03-22T08:02:51.548Z,1.00
2023-03-22T08:05:18.346Z,1.00
2023-03-22T08:07:44.912Z,1.00
2023-03-22T08:10:11.696Z,1.00
2023-03-22T08:12:38.217Z,1.00
2023-03-22T08:15:05.277Z,1.00
2023-03-22T08:17:31.792Z,1.00
2023-03-22T08:19:58.437Z,1.00
2023-03-22T08:22:25.985Z,1.00
2023-03-22T08:24:52.570Z,1.00
2023-03-22T08:27:19.126Z,1.00
2023-03-22T08:29:47.617Z,1.00
2023-03-22T08:32:14.583Z,1.00
2023-03-22T08:34:41.690Z,1.00
2023-03-22T08:37:09.321Z,1.00
2023-03-22T08:39:36.521Z,1.00
2023-03-22T08:42:03.413Z,1.00
2023-03-22T08:44:30.904Z,1.00
2023-03-22T08:46:58.316Z,1.00
2023-03-22T08:49:24.889Z,1.00
2023-03-22T08:51:51.453Z,1.00
2023-03-22T08:54:18.250Z,1.00
2023-03-22T08:56:44.778Z,1.00
2023-03-22T08:59:11.381Z,1.00
2023-03-22T09:01:38.234Z,1.00
2023-03-22T09:04:05.552Z,1.00
2023-03-22T09:06:32.546Z,1.00
2023-03-22T09:08:59.126Z,1.00
2023-03-22T09:11:25.662Z,1.00
2023-03-22T09:13:52.229Z,1.00
2023-03-22T09:16:18.862Z,1.00
2023-03-22T09:18:45.665Z,1.00
2023-03-22T09:21:12.486Z,1.00
2023-03-22T09:23:39.071Z,1.00
2023-03-22T09:26:07.043Z,1.00
2023-03-22T09:28:34.033Z,1.00
2023-03-22T09:31:01.909Z,1.00
2023-03-22T09:33:28.539Z,1.00
2023-03-22T09:35:57.038Z,1.00
2023-03-22T09:38:25.034Z,1.00
2023-03-22T09:41:10.544Z,1.00
2023-03-22T09:47:00.403Z,1.00
2023-03-22T09:49:29.116Z,1.00
2023-03-22T09:51:56.063Z,1.00
2023-03-22T09:54:33.696Z,1.00
2023-03-22T09:57:04.915Z,1.00
2023-03-22T09:59:34.486Z,1.00
2023-03-22T10:02:04.741Z,1.00
2023-03-22T10:04:54.147Z,1.00
2023-03-22T10:07:46.868Z,1.00
2023-03-22T10:10:18.739Z,1.00
2023-03-22T10:13:07.551Z,1.00
2023-03-22T10:15:39.264Z,1.00
2023-03-22T10:18:07.885Z,1.00
2023-03-22T10:20:37.186Z,1.00
2023-03-22T10:23:05.243Z,1.00
2023-03-22T10:25:39.731Z,1.00
2023-03-22T10:28:13.887Z,1.00
2023-03-22T10:30:41.432Z,1.00
2023-03-22T10:33:16.365Z,1.00
2023-03-22T10:35:44.026Z,1.00
2023-03-22T10:38:17.980Z,1.00
2023-03-22T10:40:44.837Z,1.00
2023-03-22T10:43:29.945Z,1.00
2023-03-22T10:45:57.289Z,1.00
2023-03-22T10:48:33.130Z,1.00
2023-03-22T10:51:00.972Z,1.00
2023-03-22T10:53:37.017Z,1.00
2023-03-22T10:56:03.791Z,1.00
2023-03-22T10:58:31.555Z,1.00
2023-03-22T11:00:59.821Z,1.00
2023-03-22T11:03:36.332Z,1.00
2023-03-22T11:06:06.979Z,1.00
2023-03-22T11:08:42.742Z,1.00
2023-03-22T11:11:27.978Z,1.00
2023-03-22T11:14:08.374Z,1.00
2023-03-22T11:16:47.751Z,1.00
2023-03-22T11:19:16.478Z,1.00
2023-03-22T11:21:43.475Z,1.00
2023-03-22T11:24:13.005Z,1.00
2023-03-22T11:26:41.557Z,1.00
2023-03-22T11:29:17.000Z,1.00
2023-03-22T11:31:55.151Z,1.00
2023-03-22T11:34:24.207Z,1.00
2023-03-22T11:36:59.644Z,1.00
2023-03-22T11:39:28.399Z,1.00
2023-03-22T11:42:03.685Z,1.00
2023-03-22T11:44:33.419Z,1.00
2023-03-22T11:47:01.190Z,1.00
2023-03-22T11:49:32.137Z,1.00
2023-03-22T11:52:07.227Z,1.00
2023-03-22T11:54:38.048Z,1.00
2023-03-22T11:57:05.855Z,1.00
2023-03-22T11:59:58.773Z,1.00
2023-03-22T12:02:29.849Z,1.00
2023-03-22T12:05:14.953Z,1.00
2023-03-22T12:07:42.273Z,1.00
2023-03-22T12:10:15.523Z,1.00
2023-03-22T12:12:45.935Z,1.00
2023-03-22T12:15:18.959Z,1.00
2023-03-22T12:17:50.134Z,1.00
2023-03-22T12:20:16.788Z,1.00
2023-03-22T12:22:47.770Z,1.00
2023-03-22T12:25:19.210Z,1.00
2023-03-22T12:27:48.243Z,1.00
2023-03-22T12:30:19.740Z,1.00
2023-03-22T12:32:48.574Z,1.00
2023-03-22T12:35:21.034Z,1.00
2023-03-22T12:37:50.796Z,1.00
2023-03-22T12:40:21.811Z,1.00
2023-03-22T12:42:54.136Z,1.00
2023-03-22T12:45:26.358Z,1.00
2023-03-22T12:48:00.632Z,1.00
2023-03-22T12:50:38.773Z,1.00
2023-03-22T12:53:06.452Z,1.00
2023-03-22T12:55:35.016Z,1.00
2023-03-22T12:58:01.851Z,1.00
2023-03-22T13:00:43.261Z,1.00
2023-03-22T13:03:17.288Z,1.00
2023-03-22T13:05:44.754Z,1.00
2023-03-22T13:08:11.610Z,1.00
2023-03-22T13:10:47.925Z,1.00
2023-03-22T13:13:16.310Z,1.00
2023-03-22T13:16:01.599Z,1.00
2023-03-22T13:18:38.440Z,1.00
2023-03-22T13:21:19.066Z,1.00
2023-03-22T13:24:05.110Z,1.00
2023-03-22T13:26:34.894Z,1.00
2023-03-22T13:29:07.696Z,1.00
2023-03-22T13:31:40.816Z,1.00
2023-03-22T13:34:34.084Z,1.00
2023-03-22T13:37:03.641Z,1.00
2023-03-22T13:39:34.571Z,1.00
2023-03-22T13:42:16.801Z,1.00
2023-03-22T13:44:45.953Z,1.00
2023-03-22T13:47:36.158Z,1.00
2023-03-22T13:50:16.824Z,1.00
2023-03-22T13:52:45.995Z,1.00
2023-03-22T13:55:36.765Z,1.00
2023-03-22T13:58:05.537Z,1.00
2023-03-22T14:00:32.086Z,1.00
2023-03-22T14:03:01.955Z,1.00
2023-03-22T14:05:31.441Z,1.00
2023-03-22T14:08:00.187Z,1.00
2023-03-22T14:10:26.709Z,1.00
2023-03-22T14:13:02.391Z,1.00
2023-03-22T14:15:31.344Z,1.00
2023-03-22T14:18:17.029Z,1.00
2023-03-22T14:20:44.472Z,1.00
